createdAt,value
2023-01-02T00:02:07.359Z,8.64
2023-01-02T00:07:08.872Z,8.68
2023-01-02T00:12:10.578Z,8.70
2023-01-02T00:17:12.023Z,8.74
2023-01-02T00:22:13.445Z,8.70
2023-01-02T00:27:15.297Z,8.74
2023-01-02T00:32:16.751Z,8.68
2023-01-02T00:37:18.164Z,8.66
2023-01-02T00:42:19.617Z,8.65
2023-01-02T00:47:21.149Z,8.67
2023-01-02T00:52:22.610Z,8.59
2023-01-02T00:57:24.118Z,8.56
2023-01-02T01:02:25.663Z,8.55
2023-01-02T01:07:29.114Z,8.57
2023-01-02T01:12:31.100Z,8.56
2023-01-02T01:17:33.053Z,8.60
2023-01-02T01:22:34.546Z,8.65
2023-01-02T01:27:36.097Z,8.54
2023-01-02T01:32:37.809Z,8.51
2023-01-02T01:37:40.010Z,8.49
2023-01-02T01:42:41.541Z,8.46
2023-01-02T01:47:52.453Z,8.45
2023-01-02T01:53:07.011Z,8.44
2023-01-02T01:58:12.250Z,8.44
2023-01-02T02:03:18.612Z,8.46
2023-01-02T02:08:31.453Z,8.48
2023-01-02T02:13:34.072Z,8.46
2023-01-02T02:18:44.497Z,8.44
2023-01-02T02:23:54.721Z,8.46
2023-01-02T02:29:14.986Z,8.41
2023-01-02T02:34:29.336Z,8.44
2023-01-02T02:39:49.387Z,8.42
2023-01-02T02:45:16.937Z,8.42
2023-01-02T02:50:32.152Z,8.44
2023-01-02T02:55:41.362Z,8.41
2023-01-02T03:00:42.802Z,8.45
2023-01-02T03:05:53.320Z,8.43
2023-01-02T03:11:01.371Z,8.41
2023-01-02T03:16:19.948Z,8.42
2023-01-02T03:21:33.238Z,8.40
2023-01-02T03:26:37.871Z,8.35
2023-01-02T03:31:40.860Z,8.37
2023-01-02T03:36:45.717Z,8.41
2023-01-02T03:42:01.294Z,8.43
2023-01-02T03:47:25.514Z,8.54
2023-01-02T03:52:26.994Z,8.50
2023-01-02T03:57:43.339Z,8.57
2023-01-02T04:02:49.334Z,8.63
2023-01-02T04:08:02.745Z,8.61
2023-01-02T04:13:13.080Z,8.60
2023-01-02T04:18:31.968Z,8.70
2023-01-02T04:23:42.116Z,8.72
2023-01-02T04:28:43.752Z,8.73
2023-01-02T04:33:50.987Z,8.72
2023-01-02T04:38:52.494Z,8.73
2023-01-02T04:43:55.405Z,8.76
2023-01-02T04:48:57.228Z,8.83
2023-01-02T04:53:58.649Z,8.85
2023-01-02T04:59:00.084Z,8.93
2023-01-02T05:04:01.543Z,9.12
2023-01-02T05:09:03.044Z,9.16
2023-01-02T05:14:07.704Z,9.21
2023-01-02T05:19:09.700Z,9.31
2023-01-02T05:24:11.347Z,9.27
2023-01-02T05:29:12.951Z,9.36
2023-01-02T05:34:15.925Z,9.47
2023-01-02T05:39:17.430Z,9.47
2023-01-02T05:44:19.055Z,9.52
2023-01-02T05:49:20.545Z,9.50
2023-01-02T05:54:22.082Z,9.54
2023-01-02T05:59:23.595Z,9.61
2023-01-02T06:04:25.089Z,9.64
2023-01-02T06:09:26.569Z,9.70
2023-01-02T06:14:27.983Z,9.73
2023-01-02T06:19:29.764Z,9.79
2023-01-02T06:24:31.306Z,9.89
2023-01-02T06:29:32.804Z,9.92
2023-01-02T06:34:34.239Z,9.91
2023-01-02T06:39:35.723Z,10.01
2023-01-02T06:44:37.294Z,10.07
2023-01-02T06:49:38.721Z,10.05
2023-01-02T06:54:40.212Z,10.09
2023-01-02T06:59:41.714Z,10.11
2023-01-02T07:04:43.235Z,10.14
2023-01-02T07:09:44.742Z,10.14
2023-01-02T07:14:46.303Z,10.13
2023-01-02T07:19:53.239Z,10.17
2023-01-02T07:24:55.965Z,10.15
2023-01-02T07:29:57.659Z,10.07
2023-01-02T07:34:59.093Z,10.12
2023-01-02T07:40:00.515Z,10.17
2023-01-02T07:45:02.037Z,10.06
2023-01-02T07:50:03.801Z,10.18
2023-01-02T07:55:05.874Z,10.12
2023-01-02T08:00:08.031Z,10.19
2023-01-02T08:05:09.995Z,10.16
2023-01-02T08:10:12.371Z,10.14
2023-01-02T08:15:13.926Z,10.17
2023-01-02T08:20:15.683Z,10.13
2023-01-02T08:25:17.270Z,10.05
2023-01-02T08:30:18.796Z,10.13
2023-01-02T08:35:36.882Z,10.09
2023-01-02T08:40:39.749Z,10.12
2023-01-02T08:45:41.183Z,10.14
2023-01-02T08:50:42.701Z,10.13
2023-01-02T08:55:44.558Z,10.08
2023-01-02T09:00:46.050Z,10.24
2023-01-02T09:05:47.618Z,10.32
2023-01-02T09:10:49.189Z,10.25
2023-01-02T09:15:50.729Z,10.29
2023-01-02T09:20:52.226Z,10.33
2023-01-02T09:25:58.544Z,10.45
2023-01-02T09:31:00.315Z,10.42
2023-01-02T09:36:07.410Z,10.32
2023-01-02T09:41:22.682Z,10.33
2023-01-02T09:46:43.762Z,10.35
2023-01-02T09:51:45.883Z,10.31
2023-01-02T09:56:54.584Z,10.38
2023-01-02T10:02:10.829Z,10.36
2023-01-02T10:07:22.158Z,10.33
2023-01-02T10:12:52.221Z,10.25
2023-01-02T10:18:00.635Z,10.29
2023-01-02T10:23:18.147Z,10.26
2023-01-02T10:28:49.233Z,10.19
2023-01-02T10:33:57.434Z,9.95
2023-01-02T10:39:01.124Z,9.86
2023-01-02T10:44:07.923Z,9.77
2023-01-02T10:49:10.895Z,9.75
2023-01-02T10:54:12.350Z,9.72
2023-01-02T10:59:21.058Z,9.57
2023-01-02T11:04:30.417Z,9.48
2023-01-02T11:09:35.865Z,9.21
2023-01-02T11:14:38.280Z,9.04
2023-01-02T11:19:43.216Z,8.76
2023-01-02T11:25:07.789Z,8.71
2023-01-02T11:30:35.494Z,8.35
2023-01-02T11:35:55.284Z,8.29
2023-01-02T11:40:59.945Z,8.31
2023-01-02T11:46:06.847Z,8.19
2023-01-02T11:51:17.758Z,8.15
2023-01-02T11:56:30.605Z,8.04
2023-01-02T12:01:47.759Z,8.03
2023-01-02T12:07:08.364Z,8.14
2023-01-02T12:12:21.465Z,8.03
2023-01-02T12:17:38.115Z,8.09
2023-01-02T12:22:50.344Z,8.10
2023-01-02T12:28:02.461Z,7.93
2023-01-02T12:33:21.888Z,7.97
2023-01-02T12:38:48.008Z,7.87
2023-01-02T12:44:17.884Z,7.78
2023-01-02T12:49:41.158Z,7.78
2023-01-02T12:55:06.839Z,7.86
2023-01-02T13:00:40.843Z,7.81
2023-01-02T13:05:47.857Z,7.71
2023-01-02T13:10:50.594Z,7.62
2023-01-02T13:16:02.240Z,7.55
2023-01-02T13:21:15.206Z,7.50
2023-01-02T13:26:20.356Z,7.48
2023-01-02T13:36:46.226Z,7.47
2023-01-02T13:42:11.415Z,7.45
2023-01-02T13:47:25.946Z,7.42
2023-01-02T13:52:31.647Z,7.50
2023-01-02T13:57:33.166Z,7.43
2023-01-02T14:02:34.843Z,7.52
2023-01-02T14:07:43.473Z,7.43
2023-01-02T14:12:53.827Z,7.48
2023-01-02T14:18:11.768Z,7.42
2023-01-02T14:23:27.780Z,7.34
2023-01-02T14:28:34.519Z,7.36
2023-01-02T14:33:36.402Z,7.24
2023-01-02T14:38:42.135Z,7.18
2023-01-02T14:43:45.985Z,7.12
2023-01-02T14:48:53.995Z,7.12
2023-01-02T14:54:00.241Z,7.15
2023-01-02T14:59:03.398Z,7.04
2023-01-02T15:04:24.599Z,6.94
2023-01-02T15:09:26.103Z,6.77
2023-01-02T15:14:27.609Z,6.75
2023-01-02T15:19:32.129Z,6.56
2023-01-02T15:24:34.545Z,6.54
2023-01-02T15:29:36.095Z,6.71
2023-01-02T15:34:37.612Z,6.76
2023-01-02T15:39:42.433Z,6.70
2023-01-02T15:45:02.797Z,6.82
2023-01-02T15:50:14.220Z,6.77
2023-01-02T15:55:17.839Z,6.80
2023-01-02T16:00:49.645Z,6.70
2023-01-02T16:05:55.080Z,6.75
2023-01-02T16:11:02.573Z,6.67
2023-01-02T16:16:15.795Z,6.66
2023-01-02T16:21:19.136Z,6.57
2023-01-02T16:26:23.348Z,6.62
2023-01-02T16:31:25.297Z,6.85
2023-01-02T16:36:29.027Z,6.78
2023-01-02T16:41:42.257Z,6.90
2023-01-02T16:46:46.641Z,6.86
2023-01-02T16:51:51.257Z,6.95
2023-01-02T16:56:52.833Z,6.95
2023-01-02T17:01:54.579Z,7.04
2023-01-02T17:06:56.176Z,7.09
2023-01-02T17:12:01.050Z,7.12
2023-01-02T17:17:02.571Z,7.16
2023-01-02T17:22:04.758Z,7.24
2023-01-02T17:27:06.225Z,7.30
2023-01-02T17:32:07.931Z,7.23
2023-01-02T17:37:09.662Z,7.29
2023-01-02T17:42:11.621Z,7.25
2023-01-02T17:52:35.705Z,7.20
2023-01-02T17:57:39.233Z,7.11
2023-01-02T18:02:41.704Z,7.16
2023-01-02T18:07:43.245Z,7.16
2023-01-02T18:12:44.734Z,7.16
2023-01-02T18:17:46.565Z,7.14
2023-01-02T18:22:50.869Z,7.13
2023-01-02T18:27:58.057Z,7.00
2023-01-02T18:33:15.780Z,6.97
2023-01-02T18:38:29.458Z,6.90
2023-01-02T18:43:35.593Z,6.76
2023-01-02T18:48:39.008Z,6.63
2023-01-02T18:53:48.995Z,6.68
2023-01-02T18:59:19.078Z,6.60
2023-01-02T19:04:34.602Z,6.43
2023-01-02T19:09:38.097Z,6.51
2023-01-02T19:14:42.004Z,6.45
2023-01-02T19:19:44.446Z,6.43
2023-01-02T19:24:46.312Z,6.39
2023-01-02T19:29:50.790Z,6.43
2023-01-02T19:34:54.180Z,6.31
2023-01-02T19:39:57.917Z,6.10
2023-01-02T19:45:08.961Z,6.00
2023-01-02T19:50:22.410Z,5.92
2023-01-02T19:55:23.851Z,5.78
2023-01-02T20:00:25.322Z,5.90
2023-01-02T20:05:28.590Z,5.82
2023-01-02T20:10:30.154Z,5.78
2023-01-02T20:15:31.637Z,5.69
2023-01-02T20:20:34.142Z,5.77
2023-01-02T20:25:35.599Z,5.57
2023-01-02T20:30:37.083Z,5.50
2023-01-02T20:35:38.618Z,5.47
2023-01-02T20:40:40.260Z,5.49
2023-01-02T20:45:41.786Z,5.52
2023-01-02T20:50:43.222Z,5.52
2023-01-02T20:55:44.864Z,5.40
2023-01-02T21:00:46.522Z,5.46
2023-01-02T21:05:47.986Z,5.47
2023-01-02T21:10:49.523Z,5.34
2023-01-02T21:15:54.791Z,5.29
2023-01-02T21:21:17.640Z,5.20
2023-01-02T21:26:21.683Z,5.18
2023-01-02T21:31:23.451Z,4.92
2023-01-02T21:36:25.193Z,4.82
2023-01-02T21:41:45.113Z,4.86
2023-01-02T21:46:46.723Z,4.75
2023-01-02T21:51:48.201Z,4.72
2023-01-02T21:56:49.635Z,4.58
2023-01-02T22:01:54.921Z,4.50
2023-01-02T22:12:18.097Z,4.57
2023-01-02T22:17:19.578Z,4.60
2023-01-02T22:22:21.236Z,4.50
2023-01-02T22:27:23.198Z,4.42
2023-01-02T22:32:25.116Z,4.32
2023-01-02T22:37:26.939Z,4.19
2023-01-02T22:43:00.449Z,4.22
2023-01-02T22:48:05.979Z,4.21
2023-01-02T22:53:13.590Z,4.15
2023-01-02T22:58:15.292Z,4.23
2023-01-02T23:03:17.597Z,4.11
2023-01-02T23:08:19.183Z,4.19
2023-01-02T23:13:20.971Z,4.14
2023-01-02T23:18:42.427Z,4.02
2023-01-02T23:23:43.970Z,4.02
2023-01-02T23:34:09.376Z,4.04
2023-01-02T23:39:13.962Z,4.16
2023-01-02T23:44:15.936Z,4.15
2023-01-02T23:49:17.571Z,4.15
2023-01-02T23:54:20.153Z,4.34
2023-01-02T23:59:23.509Z,4.39
